createdAt,value
2022-09-12T00:02:13.356Z,25.03
2022-09-12T00:04:39.841Z,24.33
2022-09-12T00:07:06.313Z,21.83
2022-09-12T00:09:32.784Z,24.20
2022-09-12T00:11:59.162Z,23.77
2022-09-12T00:14:25.633Z,21.60
2022-09-12T00:16:52.193Z,23.10
2022-09-12T00:19:19.052Z,23.83
2022-09-12T00:21:45.476Z,22.03
2022-09-12T00:24:11.899Z,22.43
2022-09-12T00:26:38.815Z,22.10
2022-09-12T00:29:05.262Z,21.10
2022-09-12T00:31:32.246Z,20.53
2022-09-12T00:34:00.836Z,22.60
2022-09-12T00:36:28.504Z,20.87
2022-09-12T00:38:55.012Z,20.63
2022-09-12T00:41:27.650Z,23.10
2022-09-12T00:44:21.518Z,20.57
2022-09-12T00:46:59.976Z,21.17
2022-09-12T00:49:35.127Z,22.30
2022-09-12T00:52:12.160Z,20.37
2022-09-12T00:54:52.999Z,21.73
2022-09-12T00:57:23.734Z,21.07
2022-09-12T01:00:08.224Z,21.97
2022-09-12T01:02:35.009Z,21.90
2022-09-12T01:05:01.763Z,20.87
2022-09-12T01:07:28.772Z,20.17
2022-09-12T01:09:55.383Z,20.43
2022-09-12T01:12:21.903Z,19.33
2022-09-12T01:14:48.317Z,19.90
2022-09-12T01:17:15.245Z,18.30
2022-09-12T01:20:17.377Z,20.63
2022-09-12T01:23:06.667Z,18.53
2022-09-12T01:25:39.112Z,18.57
2022-09-12T01:28:30.323Z,18.60
2022-09-12T01:31:10.570Z,16.70
2022-09-12T01:34:03.623Z,17.47
2022-09-12T01:36:50.816Z,17.57
2022-09-12T01:39:30.220Z,19.97
2022-09-12T01:42:22.812Z,16.97
2022-09-12T01:44:59.979Z,18.10
2022-09-12T01:47:43.675Z,18.10
2022-09-12T01:50:24.588Z,17.97
2022-09-12T01:52:55.982Z,17.80
2022-09-12T01:55:34.550Z,17.23
2022-09-12T01:58:08.065Z,18.30
2022-09-12T02:00:40.134Z,17.03
2022-09-12T02:03:15.303Z,19.07
2022-09-12T02:06:01.678Z,17.93
2022-09-12T02:08:52.106Z,17.80
2022-09-12T02:11:19.519Z,16.57
2022-09-12T02:14:06.441Z,17.00
2022-09-12T02:16:42.330Z,17.07
2022-09-12T02:19:29.584Z,17.33
2022-09-12T02:22:00.104Z,17.00
2022-09-12T02:24:39.317Z,16.97
2022-09-12T02:27:05.663Z,17.70
2022-09-12T02:29:32.138Z,17.90
2022-09-12T02:32:11.989Z,18.13
2022-09-12T02:34:44.263Z,16.63
2022-09-12T02:37:38.699Z,17.60
2022-09-12T02:40:07.050Z,16.10
2022-09-12T02:42:33.608Z,17.30
2022-09-12T02:45:00.122Z,16.30
2022-09-12T02:47:35.938Z,16.87
2022-09-12T02:50:05.083Z,16.67
2022-09-12T02:52:32.103Z,16.00
2022-09-12T02:54:59.463Z,15.00
2022-09-12T02:57:26.319Z,14.90
2022-09-12T02:59:57.042Z,15.20
2022-09-12T03:02:42.659Z,16.37
2022-09-12T03:05:29.274Z,14.50
2022-09-12T03:08:20.341Z,14.83
2022-09-12T03:11:13.333Z,14.63
2022-09-12T03:14:07.724Z,15.30
2022-09-12T03:17:20.546Z,15.33
2022-09-12T03:20:01.987Z,15.40
2022-09-12T03:22:37.380Z,14.57
2022-09-12T03:25:09.164Z,15.90
2022-09-12T03:27:41.030Z,14.70
2022-09-12T03:30:08.572Z,15.20
2022-09-12T03:32:40.986Z,15.00
2022-09-12T03:35:07.762Z,14.00
2022-09-12T03:37:34.180Z,15.57
2022-09-12T03:40:00.987Z,15.40
2022-09-12T03:42:27.496Z,13.30
2022-09-12T03:44:53.886Z,14.90
2022-09-12T03:47:20.320Z,14.77
2022-09-12T03:49:46.728Z,14.73
2022-09-12T03:52:13.177Z,14.00
2022-09-12T03:54:39.736Z,14.67
2022-09-12T03:57:06.158Z,13.20
2022-09-12T03:59:33.038Z,14.10
2022-09-12T04:01:59.549Z,15.13
2022-09-12T04:04:26.018Z,13.50
2022-09-12T04:06:52.413Z,13.10
2022-09-12T04:09:18.866Z,14.20
2022-09-12T04:11:45.275Z,15.17
2022-09-12T04:14:11.676Z,13.27
2022-09-12T04:16:38.114Z,14.97
2022-09-12T04:19:04.876Z,13.90
2022-09-12T04:21:31.317Z,13.60
2022-09-12T04:23:57.703Z,13.57
2022-09-12T04:26:24.180Z,12.70
2022-09-12T04:28:54.611Z,13.13
2022-09-12T04:31:22.636Z,12.60
2022-09-12T04:34:00.418Z,13.30
2022-09-12T04:36:28.183Z,13.07
2022-09-12T04:38:55.262Z,12.27
2022-09-12T04:41:27.313Z,13.87
2022-09-12T04:44:01.468Z,12.93
2022-09-12T04:46:32.766Z,13.33
2022-09-12T04:48:59.279Z,13.10
2022-09-12T04:51:30.939Z,12.53
2022-09-12T04:54:00.448Z,13.13
2022-09-12T04:56:28.764Z,12.67
2022-09-12T04:58:58.436Z,12.10
2022-09-12T05:01:25.374Z,12.93
2022-09-12T05:03:52.016Z,12.43
2022-09-12T05:06:21.439Z,12.47
2022-09-12T05:08:48.528Z,12.30
2022-09-12T05:11:22.720Z,12.40
2022-09-12T05:13:51.782Z,11.83
2022-09-12T05:16:19.064Z,11.90
2022-09-12T05:18:47.161Z,11.90
2022-09-12T05:21:16.586Z,12.00
2022-09-12T05:23:43.480Z,12.80
2022-09-12T05:26:15.183Z,11.53
2022-09-12T05:28:42.593Z,11.90
2022-09-12T05:31:12.554Z,11.60
2022-09-12T05:33:41.029Z,12.23
2022-09-12T05:36:11.248Z,13.37
2022-09-12T05:38:37.882Z,12.30
2022-09-12T05:41:14.639Z,12.80
2022-09-12T05:43:43.855Z,12.17
2022-09-12T05:46:14.401Z,12.33
2022-09-12T05:48:43.013Z,11.53
2022-09-12T05:51:15.080Z,12.80
2022-09-12T05:53:41.689Z,13.97
2022-09-12T05:56:09.540Z,12.57
2022-09-12T05:58:37.674Z,12.33
2022-09-12T06:01:08.562Z,12.20
2022-09-12T06:03:37.199Z,13.63
2022-09-12T06:06:07.207Z,12.47
2022-09-12T06:08:34.830Z,11.67
2022-09-12T06:11:03.614Z,13.40
2022-09-12T06:13:36.885Z,12.77
2022-09-12T06:16:18.296Z,13.07
2022-09-12T06:18:49.520Z,12.90
2022-09-12T06:21:16.297Z,12.90
2022-09-12T06:23:43.227Z,13.13
2022-09-12T06:26:10.753Z,12.97
2022-09-12T06:28:39.323Z,12.97
2022-09-12T06:31:14.921Z,13.77
2022-09-12T06:33:43.707Z,13.57
2022-09-12T06:36:13.111Z,13.47
2022-09-12T06:38:40.830Z,12.80
2022-09-12T06:41:10.150Z,13.40
2022-09-12T06:43:37.063Z,13.27
2022-09-12T06:46:04.308Z,13.77
2022-09-12T06:48:30.865Z,12.73
2022-09-12T06:51:10.235Z,13.13
2022-09-12T06:53:37.585Z,12.87
2022-09-12T06:56:07.115Z,13.10
2022-09-12T06:58:35.031Z,12.90
2022-09-12T07:01:06.030Z,12.40
2022-09-12T07:03:32.726Z,12.73
2022-09-12T07:06:04.274Z,14.13
2022-09-12T07:08:31.624Z,12.57
2022-09-12T07:10:59.668Z,13.90
2022-09-12T07:13:26.513Z,12.23
2022-09-12T07:15:52.953Z,13.00
2022-09-12T07:18:19.451Z,12.23
2022-09-12T07:20:45.872Z,13.17
2022-09-12T07:23:12.331Z,13.63
2022-09-12T07:25:38.746Z,12.60
2022-09-12T07:28:05.131Z,13.53
2022-09-12T07:30:31.566Z,13.17
2022-09-12T07:32:58.021Z,12.83
2022-09-12T07:35:24.457Z,13.00
2022-09-12T07:37:50.874Z,14.03
2022-09-12T07:40:17.347Z,13.80
2022-09-12T07:42:43.887Z,14.63
2022-09-12T07:45:11.236Z,12.80
2022-09-12T07:47:37.677Z,13.97
2022-09-12T07:50:04.337Z,13.23
2022-09-12T07:52:31.237Z,13.37
2022-09-12T07:54:57.639Z,13.53
2022-09-12T07:57:25.031Z,12.50
2022-09-12T07:59:53.137Z,13.30
2022-09-12T08:02:20.320Z,12.70
2022-09-12T08:04:48.145Z,13.43
2022-09-12T08:07:14.855Z,12.10
2022-09-12T08:09:41.289Z,12.10
2022-09-12T08:12:07.903Z,12.63
2022-09-12T08:14:34.310Z,13.07
2022-09-12T08:17:00.904Z,13.17
2022-09-12T08:19:27.328Z,13.70
2022-09-12T08:21:53.732Z,12.40
2022-09-12T08:24:20.177Z,13.57
2022-09-12T08:26:46.773Z,12.20
2022-09-12T08:29:13.252Z,12.83
2022-09-12T08:31:41.295Z,13.70
2022-09-12T08:34:08.169Z,13.27
2022-09-12T08:36:35.243Z,12.70
2022-09-12T08:39:04.911Z,13.93
2022-09-12T08:41:45.749Z,12.93
2022-09-12T08:44:36.116Z,13.30
2022-09-12T08:47:14.677Z,13.10
2022-09-12T08:50:12.670Z,12.07
2022-09-12T08:52:43.953Z,11.57
2022-09-12T08:55:45.151Z,12.30
2022-09-12T08:58:17.820Z,11.80
2022-09-12T09:00:59.425Z,12.47
2022-09-12T09:03:45.154Z,11.57
2022-09-12T09:06:30.384Z,11.03
2022-09-12T09:09:11.930Z,11.50
2022-09-12T09:11:50.999Z,9.83
2022-09-12T09:14:42.230Z,11.00
2022-09-12T09:17:18.151Z,10.20
2022-09-12T09:19:51.009Z,9.10
2022-09-12T09:22:33.190Z,8.77
2022-09-12T09:25:04.543Z,8.50
2022-09-12T09:27:41.774Z,9.43
2022-09-12T09:30:17.926Z,8.10
2022-09-12T09:32:49.592Z,8.73
2022-09-12T09:35:44.146Z,9.13
2022-09-12T09:38:24.927Z,10.13
2022-09-12T09:40:56.457Z,9.87
2022-09-12T09:43:28.873Z,9.20
2022-09-12T09:45:57.795Z,8.37
2022-09-12T09:48:35.853Z,7.73
2022-09-12T09:51:05.357Z,8.80
2022-09-12T09:54:01.147Z,8.37
2022-09-12T09:56:29.349Z,8.40
2022-09-12T09:58:56.116Z,7.70
2022-09-12T10:01:24.577Z,7.53
2022-09-12T10:03:53.737Z,7.40
2022-09-12T10:06:20.966Z,7.60
2022-09-12T10:08:49.505Z,8.87
2022-09-12T10:11:15.868Z,7.33
2022-09-12T10:13:53.193Z,7.30
2022-09-12T10:16:24.024Z,6.60
2022-09-12T10:18:52.600Z,7.30
2022-09-12T10:21:29.475Z,6.10
2022-09-12T10:24:06.561Z,6.20
2022-09-12T10:26:37.620Z,6.60
2022-09-12T10:29:26.099Z,5.37
2022-09-12T10:32:01.242Z,5.90
2022-09-12T10:34:28.053Z,5.37
2022-09-12T10:37:00.732Z,5.60
2022-09-12T10:39:27.664Z,4.87
2022-09-12T10:41:54.250Z,5.27
2022-09-12T10:44:32.818Z,4.50
2022-09-12T10:47:19.366Z,5.20
2022-09-12T10:49:45.890Z,4.50
2022-09-12T10:52:23.583Z,5.07
2022-09-12T10:54:51.328Z,4.60
2022-09-12T10:57:32.622Z,4.50
2022-09-12T11:00:07.877Z,4.40
2022-09-12T11:02:43.081Z,5.93
2022-09-12T11:05:22.473Z,5.60
2022-09-12T11:07:59.090Z,5.03
2022-09-12T11:10:47.025Z,4.63
2022-09-12T11:13:44.600Z,4.90
2022-09-12T11:16:22.900Z,3.70
2022-09-12T11:19:14.220Z,4.50
2022-09-12T11:22:14.736Z,4.30
2022-09-12T11:24:59.818Z,4.00
2022-09-12T11:27:46.191Z,4.10
2022-09-12T11:30:17.268Z,3.80
2022-09-12T11:33:22.096Z,3.63
2022-09-12T11:35:55.439Z,3.83
2022-09-12T11:39:03.918Z,4.70
2022-09-12T11:41:34.753Z,3.70
2022-09-12T11:44:30.591Z,4.30
2022-09-12T11:46:57.636Z,4.37
2022-09-12T11:49:41.597Z,4.13
2022-09-12T11:52:14.568Z,5.53
2022-09-12T11:54:44.727Z,3.90
2022-09-12T11:57:33.739Z,4.30
2022-09-12T12:00:10.073Z,4.63
2022-09-12T12:02:48.219Z,4.27
2022-09-12T12:05:36.572Z,3.83
2022-09-12T12:08:06.396Z,3.60
2022-09-12T12:10:39.338Z,4.80
2022-09-12T12:13:23.018Z,4.20
2022-09-12T12:15:56.501Z,4.20
2022-09-12T12:18:26.235Z,3.97
2022-09-12T12:20:54.380Z,4.50
2022-09-12T12:23:33.613Z,4.13
2022-09-12T12:26:02.421Z,4.27
2022-09-12T12:28:41.154Z,4.20
2022-09-12T12:31:09.867Z,3.83
2022-09-12T12:33:39.472Z,3.80
2022-09-12T12:36:09.860Z,3.93
2022-09-12T12:38:38.996Z,4.50
2022-09-12T12:41:17.672Z,4.13
2022-09-12T12:43:46.089Z,3.70
2022-09-12T12:46:17.143Z,4.63
2022-09-12T12:49:05.399Z,4.47
2022-09-12T12:51:56.571Z,3.33
2022-09-12T12:54:41.216Z,4.00
2022-09-12T12:57:30.820Z,4.10
2022-09-12T13:00:06.918Z,4.47
2022-09-12T13:02:38.486Z,3.87
2022-09-12T13:05:16.637Z,3.53
2022-09-12T13:07:44.361Z,4.63
2022-09-12T13:10:23.952Z,4.43
2022-09-12T13:12:51.853Z,6.60
2022-09-12T13:15:36.713Z,4.03
2022-09-12T13:18:12.228Z,3.30
2022-09-12T13:20:49.743Z,3.40
2022-09-12T13:23:28.119Z,3.43
2022-09-12T13:25:57.637Z,3.53
2022-09-12T13:28:26.347Z,4.27
2022-09-12T13:31:06.495Z,4.00
2022-09-12T13:33:53.967Z,3.70
2022-09-12T13:37:11.287Z,3.47
2022-09-12T13:39:59.620Z,4.50
2022-09-12T13:42:40.629Z,4.20
2022-09-12T13:45:20.866Z,4.20
2022-09-12T13:47:50.493Z,4.00
2022-09-12T13:50:21.151Z,4.13
2022-09-12T13:52:54.901Z,5.10
2022-09-12T13:55:30.285Z,3.93
2022-09-12T13:58:03.136Z,3.90
2022-09-12T14:00:32.272Z,3.53
2022-09-12T14:03:18.124Z,4.17
2022-09-12T14:05:48.010Z,3.70
2022-09-12T14:08:15.244Z,3.80
2022-09-12T14:10:45.174Z,3.33
2022-09-12T14:13:16.496Z,3.40
2022-09-12T14:15:49.724Z,3.23
2022-09-12T14:18:36.189Z,3.10
2022-09-12T14:21:10.511Z,3.00
2022-09-12T14:23:42.550Z,2.20
2022-09-12T14:26:12.644Z,2.60
2022-09-12T14:28:41.752Z,2.40
2022-09-12T14:31:25.062Z,3.07
2022-09-12T14:33:53.891Z,3.70
2022-09-12T14:36:40.996Z,3.00
2022-09-12T14:39:19.817Z,2.40
2022-09-12T14:41:46.564Z,3.20
2022-09-12T14:44:40.811Z,2.93
2022-09-12T14:47:20.799Z,2.53
2022-09-12T14:49:51.570Z,2.73
2022-09-12T14:52:28.796Z,3.30
2022-09-12T14:55:21.587Z,2.70
2022-09-12T14:57:50.170Z,2.30
2022-09-12T15:00:21.102Z,3.03
2022-09-12T15:02:50.134Z,3.07
2022-09-12T15:05:20.243Z,2.87
2022-09-12T15:07:59.979Z,3.20
2022-09-12T15:10:27.738Z,3.40
2022-09-12T15:13:04.699Z,3.40
2022-09-12T15:15:32.063Z,3.17
2022-09-12T15:18:01.368Z,3.33
2022-09-12T15:20:29.983Z,3.60
2022-09-12T15:22:56.857Z,3.57
2022-09-12T15:25:23.264Z,3.30
2022-09-12T15:27:53.460Z,4.53
2022-09-12T15:30:19.881Z,5.07
2022-09-12T15:32:46.288Z,6.03
2022-09-12T15:35:18.179Z,4.50
2022-09-12T15:37:44.804Z,3.53
2022-09-12T15:40:13.030Z,4.67
2022-09-12T15:42:39.916Z,4.70
2022-09-12T15:45:18.549Z,4.00
2022-09-12T15:47:44.988Z,4.67
2022-09-12T15:50:11.629Z,4.10
2022-09-12T15:52:38.061Z,6.50
2022-09-12T15:55:05.862Z,4.37
2022-09-12T15:57:32.301Z,4.40
2022-09-12T15:59:58.726Z,4.53
2022-09-12T16:02:25.255Z,4.00
2022-09-12T16:04:54.612Z,4.97
2022-09-12T16:07:21.599Z,4.43
2022-09-12T16:09:48.436Z,4.20
2022-09-12T16:12:14.817Z,4.60
2022-09-12T16:14:41.182Z,8.17
2022-09-12T16:17:08.050Z,4.57
2022-09-12T16:19:34.512Z,4.40
2022-09-12T16:22:00.937Z,4.27
2022-09-12T16:24:27.451Z,4.70
2022-09-12T16:26:55.915Z,4.73
2022-09-12T16:29:25.890Z,4.50
2022-09-12T16:31:52.304Z,4.00
2022-09-12T16:34:18.721Z,3.30
2022-09-12T16:36:45.262Z,3.47
2022-09-12T16:39:11.650Z,3.33
2022-09-12T16:41:38.162Z,3.33
2022-09-12T16:44:04.574Z,3.53
2022-09-12T16:46:31.062Z,3.20
2022-09-12T16:48:58.878Z,3.30
2022-09-12T16:51:30.806Z,3.53
2022-09-12T16:53:57.445Z,3.50
2022-09-12T16:56:25.390Z,3.33
2022-09-12T16:58:52.808Z,3.20
2022-09-12T17:01:24.924Z,4.10
2022-09-12T17:03:56.510Z,3.03
2022-09-12T17:06:25.056Z,3.57
2022-09-12T17:08:53.114Z,3.77
2022-09-12T17:11:34.083Z,3.47
2022-09-12T17:14:05.849Z,3.40
2022-09-12T17:16:47.982Z,3.33
2022-09-12T17:19:21.183Z,3.97
2022-09-12T17:21:48.780Z,3.13
2022-09-12T17:24:16.652Z,3.30
2022-09-12T17:26:43.397Z,3.90
2022-09-12T17:29:12.677Z,3.60
2022-09-12T17:31:39.390Z,4.07
2022-09-12T17:34:05.857Z,3.70
2022-09-12T17:36:32.581Z,4.00
2022-09-12T17:38:59.540Z,4.30
2022-09-12T17:41:28.161Z,4.40
2022-09-12T17:43:57.148Z,4.13
2022-09-12T17:46:26.281Z,4.30
2022-09-12T17:48:54.624Z,4.23
2022-09-12T17:51:22.830Z,5.33
2022-09-12T17:53:49.355Z,4.53
2022-09-12T17:56:15.951Z,4.77
2022-09-12T17:58:42.457Z,4.37
2022-09-12T18:01:33.539Z,4.87
2022-09-12T18:04:01.719Z,6.57
2022-09-12T18:06:30.091Z,4.57
2022-09-12T18:09:05.908Z,4.70
2022-09-12T18:11:33.348Z,4.60
2022-09-12T18:14:00.607Z,5.00
2022-09-12T18:16:31.579Z,4.50
2022-09-12T18:19:02.197Z,4.23
2022-09-12T18:21:29.177Z,4.37
2022-09-12T18:23:59.923Z,4.00
2022-09-12T18:26:28.068Z,4.50
2022-09-12T18:28:55.012Z,4.30
2022-09-12T18:31:24.396Z,4.43
2022-09-12T18:33:51.433Z,4.60
2022-09-12T18:36:19.726Z,4.60
2022-09-12T18:38:47.895Z,4.30
2022-09-12T18:41:23.019Z,4.13
2022-09-12T18:44:01.376Z,4.27
2022-09-12T18:46:30.419Z,3.93
2022-09-12T18:48:58.465Z,4.20
2022-09-12T18:51:34.204Z,4.23
2022-09-12T18:54:03.899Z,4.70
2022-09-12T18:56:35.213Z,4.90
2022-09-12T18:59:03.661Z,3.83
2022-09-12T19:01:32.899Z,4.20
2022-09-12T19:04:01.206Z,4.33
2022-09-12T19:06:30.186Z,4.47
2022-09-12T19:08:57.917Z,3.83
2022-09-12T19:11:26.044Z,4.40
2022-09-12T19:13:54.031Z,4.37
2022-09-12T19:16:25.559Z,4.40
2022-09-12T19:18:52.582Z,3.93
2022-09-12T19:21:24.949Z,4.60
2022-09-12T19:23:52.455Z,4.47
2022-09-12T19:26:20.558Z,4.40
2022-09-12T19:28:47.607Z,4.20
2022-09-12T19:31:18.942Z,4.80
2022-09-12T19:33:46.268Z,4.33
2022-09-12T19:36:33.989Z,4.70
2022-09-12T19:39:01.715Z,5.10
2022-09-12T19:41:28.564Z,5.30
2022-09-12T19:43:56.170Z,8.43
2022-09-12T19:46:24.265Z,6.37
2022-09-12T19:48:52.489Z,5.47
2022-09-12T19:51:20.335Z,5.40
2022-09-12T19:53:47.269Z,5.60
2022-09-12T19:56:14.632Z,6.57
2022-09-12T19:58:43.454Z,7.70
2022-09-12T20:01:16.735Z,4.80
2022-09-12T20:03:44.273Z,5.90
2022-09-12T20:06:16.269Z,5.10
2022-09-12T20:08:43.972Z,4.97
2022-09-12T20:11:13.027Z,4.57
2022-09-12T20:13:39.784Z,4.70
2022-09-12T20:16:21.841Z,5.03
2022-09-12T20:18:53.649Z,4.53
2022-09-12T20:21:23.349Z,4.63
2022-09-12T20:23:49.765Z,5.57
2022-09-12T20:26:16.206Z,5.23
2022-09-12T20:28:42.844Z,5.10
2022-09-12T20:31:15.096Z,5.10
2022-09-12T20:33:41.970Z,5.20
2022-09-12T20:36:11.749Z,5.20
2022-09-12T20:38:38.634Z,5.40
2022-09-12T20:41:07.528Z,4.70
2022-09-12T20:43:33.969Z,5.07
2022-09-12T20:46:05.192Z,4.93
2022-09-12T20:48:32.009Z,4.70
2022-09-12T20:51:01.985Z,5.00
2022-09-12T20:53:32.853Z,4.87
2022-09-12T20:56:01.387Z,4.60
2022-09-12T20:58:27.786Z,5.00
2022-09-12T21:00:54.210Z,4.70
2022-09-12T21:03:20.680Z,4.90
2022-09-12T21:05:47.113Z,5.70
2022-09-12T21:08:14.420Z,5.67
2022-09-12T21:10:42.050Z,5.40
2022-09-12T21:13:12.720Z,5.20
2022-09-12T21:15:40.303Z,4.70
2022-09-12T21:18:06.843Z,4.37
2022-09-12T21:20:33.581Z,4.23
2022-09-12T21:23:00.397Z,4.30
2022-09-12T21:25:28.911Z,4.23
2022-09-12T21:27:55.430Z,4.17
2022-09-12T21:30:22.339Z,4.00
2022-09-12T21:32:48.895Z,4.30
2022-09-12T21:35:15.418Z,3.63
2022-09-12T21:37:41.800Z,4.00
2022-09-12T21:40:08.505Z,3.63
2022-09-12T21:42:34.989Z,4.03
2022-09-12T21:45:01.408Z,3.93
2022-09-12T21:47:27.798Z,4.10
2022-09-12T21:49:55.249Z,4.23
2022-09-12T21:52:21.975Z,3.70
2022-09-12T21:54:48.386Z,4.03
2022-09-12T21:57:14.815Z,3.90
2022-09-12T21:59:41.418Z,4.00
2022-09-12T22:02:08.687Z,3.40
2022-09-12T22:04:35.156Z,4.40
2022-09-12T22:07:02.099Z,3.83
2022-09-12T22:09:28.507Z,3.83
2022-09-12T22:11:55.470Z,3.87
2022-09-12T22:14:21.899Z,4.50
2022-09-12T22:16:49.381Z,4.50
2022-09-12T22:19:15.818Z,4.00
2022-09-12T22:22:02.188Z,4.20
2022-09-12T22:24:29.380Z,4.20
2022-09-12T22:26:57.645Z,3.80
2022-09-12T22:29:24.020Z,4.70
2022-09-12T22:31:50.516Z,4.20
2022-09-12T22:34:16.962Z,4.37
2022-09-12T22:36:44.142Z,4.50
2022-09-12T22:39:10.653Z,4.63
2022-09-12T22:41:37.107Z,5.37
2022-09-12T22:44:03.536Z,5.10
2022-09-12T22:46:30.498Z,5.10
2022-09-12T22:48:57.021Z,6.80
2022-09-12T22:51:24.058Z,6.90
2022-09-12T22:53:51.394Z,6.27
2022-09-12T22:56:18.575Z,5.83
2022-09-12T22:58:44.996Z,6.40
2022-09-12T23:01:11.606Z,5.67
2022-09-12T23:03:38.294Z,5.93
2022-09-12T23:06:05.999Z,5.53
2022-09-12T23:08:34.574Z,5.50
2022-09-12T23:11:15.475Z,4.60
2022-09-12T23:13:44.264Z,5.03
2022-09-12T23:16:16.150Z,4.70
2022-09-12T23:18:42.672Z,5.07
2022-09-12T23:21:10.936Z,5.77
2022-09-12T23:23:38.203Z,7.03
2022-09-12T23:26:12.392Z,4.93
2022-09-12T23:28:40.362Z,5.10
2022-09-12T23:31:09.419Z,5.60
2022-09-12T23:33:36.564Z,4.70
2022-09-12T23:36:06.304Z,5.23
2022-09-12T23:38:34.669Z,4.40
2022-09-12T23:41:03.210Z,5.20
2022-09-12T23:43:30.489Z,4.73
2022-09-12T23:45:57.795Z,4.70
2022-09-12T23:48:24.344Z,4.97
2022-09-12T23:50:51.722Z,4.73
2022-09-12T23:53:18.815Z,4.80
2022-09-12T23:55:45.239Z,4.37
2022-09-12T23:58:11.988Z,4.80
